Latest Weather Observations for East Sale

IDV60801

Issued at 10:02 am EDT Saturday 31 January 2015 (issued every 30 minutes, with the page automatically refreshed every 10 minutes)

About weather observations | Map of weather stations | Latest weather observations for VIC | Other Formats
Station Details ID: 085072 Name: EAST SALE AIRPORT Lat: -38.12 Lon: 147.13 Height: 4.6 m
Data from the previous 72 hours. | See also: Recent months at East Sale
Date/Time
EDT
Temp
°C
App
Temp
°C
Dew
Point
Rel
Hum
%
Delta-T
°C
Wind Press
QNH
hPa
Press
MSL
hPa
Rain
since 9 am
mm
Dir
 
Spd
km/h
Gust
km/h
Spd
kts
Gust
kts
31/10:00am 16.2 11.5 12.0 76 2.3 W 28 35 15 19 1010.9 1010.9 0.0
31/09:30am 15.1 11.1 11.8 81 1.8 W 24 37 13 20 1011.0 1011.0 0.0
31/09:00am 14.3 9.4 11.3 82 1.6 W 28 39 15 21 1011.0 1011.0 2.4
31/08:30am 13.8 10.3 11.0 83 1.5 W 20 28 11 15 1011.0 1011.0 2.4
31/08:00am 13.5 9.6 10.8 84 1.4 W 22 30 12 16 1010.6 1010.6 2.4
31/07:30am 12.9 8.9 10.6 86 1.2 W 22 28 12 15 1010.5 1010.5 2.4
31/07:00am 12.6 9.1 10.1 85 1.3 W 19 26 10 14 1010.5 1010.5 2.4
31/06:30am 12.2 8.5 10.1 87 1.1 W 20 26 11 14 1010.3 1010.3 2.4
31/06:00am 12.3 9.1 10.0 86 1.2 W 17 22 9 12 1010.1 1010.1 2.4
31/05:30am 12.4 8.8 9.9 85 1.3 WNW 19 20 10 11 1010.1 1010.1 2.4
31/05:00am 12.5 8.9 10.0 85 1.3 W 19 24 10 13 1010.0 1010.0 2.4
31/04:30am 12.8 9.3 10.1 84 1.4 W 19 22 10 12 1010.1 1010.1 2.4
31/04:00am 13.1 9.5 10.0 81 1.6 WNW 19 24 10 13 1010.3 1010.3 2.4
31/03:30am 13.2 9.7 10.1 81 1.6 WNW 19 24 10 13 1010.6 1010.6 2.4
31/03:00am 13.4 9.8 9.7 78 1.9 WNW 19 20 10 11 1010.9 1010.9 2.4
31/02:30am 13.5 9.8 9.6 77 2.0 WNW 19 24 10 13 1011.1 1011.1 2.4
31/02:00am 13.7 10.4 9.6 76 2.1 W 17 24 9 13 1011.3 1011.3 2.4
31/01:30am 13.6 10.8 10.1 79 1.8 W 15 20 8 11 1011.5 1011.5 2.4
31/01:00am 13.6 10.9 10.3 80 1.7 WNW 15 19 8 10 1011.8 1011.8 2.4
31/12:30am 13.9 11.2 10.2 78 1.9 WNW 15 17 8 9 1012.1 1012.1 2.4
31/12:00am 13.8 11.4 10.1 78 1.9 WNW 13 17 7 9 1012.2 1012.2 2.4
 
Date/Time
EDT
Temp
°C
App
Temp
°C
Dew
Point
Rel
Hum
%
Delta-T
°C
Wind Press
QNH
hPa
Press
MSL
hPa
Rain
since 9 am
mm
Dir
 
Spd
km/h
Gust
km/h
Spd
kts
Gust
kts
30/11:30pm 14.0 11.9 9.9 76 2.1 W 11 15 6 8 1012.3 1012.3 2.4
30/11:00pm 14.6 12.6 10.2 75 2.3 W 11 17 6 9 1012.6 1012.6 2.4
30/10:30pm 14.7 12.4 10.3 75 2.3 WSW 13 17 7 9 1012.7 1012.7 2.4
30/10:00pm 14.9 12.6 10.3 74 2.4 WSW 13 17 7 9 1012.8 1012.8 2.4
30/09:30pm 15.1 12.3 10.1 72 2.6 SSW 15 20 8 11 1012.9 1012.9 2.4
30/09:00pm 15.7 13.3 10.2 70 2.9 SW 13 17 7 9 1012.8 1012.8 2.4
30/08:30pm 15.6 12.2 10.5 71 2.7 SSW 19 26 10 14 1012.7 1012.7 2.4
30/08:00pm 16.3 12.7 10.7 69 3.0 SSW 20 28 11 15 1012.7 1012.7 2.4
30/07:30pm 16.8 13.5 9.7 63 3.7 SW 17 24 9 13 1012.5 1012.5 2.4
30/07:00pm 17.2 13.5 10.2 63 3.7 SSW 20 30 11 16 1012.3 1012.3 2.4
30/06:30pm 17.4 13.8 10.0 62 3.9 SSW 19 26 10 14 1012.2 1012.2 2.4
30/05:30pm 17.9 13.9 10.6 62 3.9 SSW 22 35 12 19 1012.5 1012.5 2.4
30/05:00pm 18.0 14.2 11.0 63 3.8 SSW 22 32 12 17 1012.7 1012.7 2.4
30/04:30pm 18.7 14.5 11.2 61 4.1 SSW 24 35 13 19 1013.0 1013.0 2.4
30/04:00pm 18.2 14.9 11.6 65 3.6 SSW 20 30 11 16 1013.4 1013.4 2.4
30/03:30pm 17.1 13.9 11.4 69 3.1 SSW 19 26 10 14 1013.8 1013.8 2.4
30/03:00pm 16.1 12.5 11.7 75 2.4 SSW 22 32 12 17 1014.1 1014.1 2.4
30/02:30pm 15.8 12.0 12.3 80 1.9 S 24 32 13 17 1014.4 1014.4 2.4
30/02:00pm 16.0 12.6 11.4 74 2.5 SSW 20 30 11 16 1014.3 1014.3 2.4
30/01:30pm 15.2 12.0 11.9 81 1.8 SW 20 28 11 15 1014.6 1014.6 2.4
30/01:00pm 14.8 11.8 12.4 85 1.3 SW 20 30 11 16 1014.8 1014.8 2.4
30/12:30pm 14.3 11.5 12.7 90 0.9 SW 19 26 10 14 1015.0 1015.0 2.4
30/12:00pm 14.0 11.0 12.7 92 0.7 SSW 20 30 11 16 1015.4 1015.4 2.4
30/11:48am 14.5 12.3 13.2 92 0.7 SSW 17 22 9 12 1015.4 1015.4 2.4
30/11:38am 14.3 12.1 13.2 93 0.6 SSW 17 22 9 12 1015.5 1015.5 2.4
30/11:30am 14.0 11.8 13.3 96 0.4 SW 17 20 9 11 1015.6 1015.6 2.4
30/11:28am 14.1 11.9 13.2 94 0.5 SW 17 20 9 11 1015.5 1015.5 2.4
30/11:18am 14.2 12.3 13.1 93 0.6 SW 15 19 8 10 1015.6 1015.6 2.4
30/11:00am 13.9 11.2 12.8 93 0.6 SSW 19 30 10 16 1015.7 1015.7 2.4
30/10:49am 14.3 11.4 12.8 91 0.8 SSW 20 30 11 16 1015.6 1015.6 2.2
30/10:30am 14.6 12.7 13.0 90 0.9 SSW 15 20 8 11 1015.7 1015.7 2.2
30/10:10am 13.4 11.7 12.3 93 0.6 SW 13 24 7 13 1015.9 1015.9 2.2
30/10:00am 13.3 10.8 12.2 93 0.6 SW 17 28 9 15 1015.9 1015.9 1.6
30/09:50am 13.6 12.2 12.1 91 0.8 WSW 11 17 6 9 1015.8 1015.8 1.0
30/09:30am 13.9 11.7 12.0 88 1.0 WSW 15 20 8 11 1015.7 1015.7 0.0
30/09:00am 13.4 10.6 11.3 87 1.1 WSW 17 26 9 14 1015.8 1015.8 7.0
30/08:30am 13.2 10.7 11.1 87 1.1 W 15 19 8 10 1015.8 1015.8 6.8
30/08:00am 13.2 10.7 11.1 87 1.1 W 15 20 8 11 1015.6 1015.6 6.8
30/07:30am 12.9 10.3 10.8 87 1.1 WSW 15 19 8 10 1015.4 1015.4 6.8
30/07:00am 12.4 10.2 10.7 89 0.9 WSW 13 17 7 9 1015.4 1015.4 6.8
30/06:30am 12.3 9.6 10.4 88 1.0 WSW 15 19 8 10 1015.4 1015.4 6.8
30/06:00am 12.4 9.8 10.7 89 0.9 WSW 15 19 8 10 1015.4 1015.4 6.8
30/05:30am 12.8 10.6 10.7 87 1.1 WSW 13 17 7 9 1015.3 1015.3 6.8
30/05:00am 12.6 10.9 11.3 92 0.7 WSW 11 15 6 8 1015.3 1015.3 6.8
30/04:30am 12.4 11.1 11.3 93 0.6 WSW 9 13 5 7 1015.6 1015.6 6.8
30/04:00am 12.3 11.0 11.2 93 0.6 WSW 9 13 5 7 1015.8 1015.8 6.8
30/03:30am 12.6 11.7 11.3 92 0.7 WSW 7 9 4 5 1016.1 1016.1 6.8
30/03:00am 12.4 11.2 11.5 94 0.5 WSW 9 11 5 6 1016.4 1016.4 6.8
30/02:30am 12.6 11.4 11.5 93 0.6 WSW 9 13 5 7 1016.6 1016.6 6.8
30/02:00am 12.6 11.0 11.5 93 0.6 W 11 13 6 7 1016.8 1016.8 6.8
30/01:30am 12.6 11.0 11.5 93 0.6 WSW 11 13 6 7 1017.2 1017.2 6.8
30/01:00am 12.7 11.1 11.4 92 0.7 W 11 13 6 7 1017.3 1017.3 6.8
30/12:30am 12.9 11.4 11.8 93 0.6 WSW 11 15 6 8 1017.7 1017.7 6.8
30/12:00am 13.4 11.9 11.9 91 0.8 SW 11 13 6 7 1018.0 1018.0 6.6
 
Date/Time
EDT
Temp
°C
App
Temp
°C
Dew
Point
Rel
Hum
%
Delta-T
°C
Wind Press
QNH
hPa
Press
MSL
hPa
Rain
since 9 am
mm
Dir
 
Spd
km/h
Gust
km/h
Spd
kts
Gust
kts
29/11:30pm 13.9 13.2 12.0 88 1.0 SSW 7 11 4 6 1018.3 1018.3 6.6
29/11:00pm 13.9 13.1 11.7 86 1.2 S 7 11 4 6 1018.7 1018.7 6.6
29/10:30pm 13.6 12.1 11.9 89 0.9 SSE 11 15 6 8 1018.8 1018.8 6.6
29/10:00pm 14.8 13.7 11.8 82 1.6 SE 9 11 5 6 1018.9 1018.9 6.4
29/09:30pm 14.6 13.0 11.6 82 1.6 SE 11 13 6 7 1018.9 1018.9 6.4
29/09:00pm 14.4 12.9 11.8 84 1.4 SE 11 17 6 9 1018.7 1018.7 6.4
29/08:30pm 14.9 13.9 12.3 84 1.4 SSE 9 15 5 8 1018.6 1018.6 6.4
29/08:28pm 14.9 13.9 12.3 84 1.4 SSE 9 15 5 8 1018.6 1018.6 6.4
29/08:18pm 15.0 12.9 12.4 84 1.4 SE 15 24 8 13 1018.6 1018.6 6.2
29/08:00pm 15.8 13.3 12.3 80 1.9 S 17 20 9 11 1018.5 1018.5 5.2
29/07:30pm 16.2 11.5 12.0 76 2.3 SSE 28 41 15 22 1018.3 1018.3 5.0
29/07:00pm 17.2 12.3 11.3 68 3.2 SE 28 37 15 20 1018.2 1018.2 5.0
29/06:30pm 18.0 12.8 11.6 66 3.5 SSE 30 41 16 22 1018.1 1018.1 5.0
29/06:00pm 17.0 11.6 12.3 74 2.6 SE 32 41 17 22 1018.1 1018.1 5.0
29/05:30pm 17.8 13.1 10.5 62 3.9 SE 26 35 14 19 1018.3 1018.3 5.0
29/05:01pm 17.3 11.3 12.2 72 2.8 SE 35 52 19 28 1018.4 1018.4 5.0
29/05:00pm 17.1 10.8 12.2 73 2.7 SE 37 52 20 28 1018.4 1018.4 5.0
29/04:51pm 18.1 13.3 11.7 66 3.5 SSE 28 50 15 27 1018.4 1018.4 5.0
29/04:30pm 18.7 13.0 11.0 61 4.2 SE 32 44 17 24 1018.4 1018.4 5.0
29/04:00pm 18.2 13.1 11.8 66 3.5 SSE 30 41 16 22 1018.5 1018.5 5.0
29/03:30pm 17.1 15.1 12.8 76 2.4 S 15 35 8 19 1018.6 1018.6 5.0
29/03:18pm 16.0 14.1 13.1 83 1.6 S 15 28 8 15 1018.7 1018.7 5.0
29/03:04pm 15.0 9.7 12.6 85 1.3 SSE 32 50 17 27 1018.9 1018.9 3.8
29/03:00pm 15.2 9.7 13.6 90 0.9 SE 35 50 19 27 1018.8 1018.8 2.4
29/02:58pm 15.2 9.4 12.8 85 1.3 SE 35 50 19 27 1018.8 1018.8 2.0
29/02:30pm 20.4 15.8 11.1 55 5.1 SSE 26 37 14 20 1018.7 1018.7 0.0
29/02:00pm 19.5 15.3 12.5 64 3.9 S 26 35 14 19 1018.8 1018.8 0.0
29/01:30pm 21.6 17.1 11.5 52 5.6 SSE 26 37 14 20 1018.9 1018.9 0.0
29/01:01pm 20.0 15.0 11.0 56 4.9 SSE 28 46 15 25 1019.3 1019.3 0.0
29/01:00pm 19.7 15.0 10.7 56 4.9 SSE 26 46 14 25 1019.3 1019.3 0.0
29/12:30pm 19.5 15.4 11.5 60 4.4 SSE 24 35 13 19 1019.5 1019.5 0.0
29/12:00pm 19.5 14.3 10.2 55 5.0 SE 28 37 15 20 1019.5 1019.5 0.0
29/11:30am 18.9 14.3 11.0 60 4.3 SSE 26 37 14 20 1019.8 1019.8 0.0
29/11:00am 18.6 14.3 10.8 60 4.2 SSE 24 35 13 19 1019.8 1019.8 0.0
29/10:30am 17.3 12.7 11.0 66 3.4 SSE 26 39 14 21 1019.9 1019.9 0.0
29/10:00am 16.6 11.6 10.8 68 3.1 SSE 28 41 15 22 1020.0 1020.0 0.0
29/09:30am 18.0 14.6 11.2 64 3.7 SSE 20 28 11 15 1020.1 1020.1 0.0
29/09:00am 16.7 13.3 11.3 70 2.9 SSE 20 30 11 16 1020.2 1020.2 0.8
29/08:30am 15.9 14.8 11.8 76 2.2 SW 9 13 5 7 1020.1 1020.1 0.8
29/08:00am 15.1 13.6 11.8 81 1.8 SW 11 15 6 8 1020.0 1020.0 0.8
29/07:30am 14.3 13.1 11.5 83 1.5 SSW 9 13 5 7 1019.8 1019.8 0.8
29/07:00am 13.6 12.0 11.7 88 1.0 SSE 11 17 6 9 1019.5 1019.5 0.8
29/06:30am 13.4 12.5 11.3 87 1.1 SW 7 9 4 5 1019.5 1019.5 0.6
29/06:00am 10.9 9.0 8.9 87 1.0 W 9 11 5 6 1019.2 1019.2 0.4
29/05:30am 13.2 11.9 10.1 81 1.6 WNW 7 11 4 6 1019.1 1019.1 0.4
29/05:00am 13.5 12.3 10.2 80 1.7 SSE 7 11 4 6 1019.0 1019.0 0.4
29/04:30am 13.8 12.2 10.3 79 1.8 SSE 9 15 5 8 1019.0 1019.0 0.4
29/04:00am 13.8 12.0 11.0 83 1.5 SSE 11 17 6 9 1019.0 1019.0 0.4
29/03:54am 14.0 12.6 11.0 82 1.6 SE 9 13 5 7 1019.1 1019.1 0.4
29/03:32am 14.3 11.9 11.3 82 1.6 SSE 15 32 8 17 1019.4 1019.4 0.4
29/03:30am 14.2 12.1 11.2 82 1.6 S 13 22 7 12 1019.4 1019.4 0.4
29/03:00am 13.4 11.4 10.3 81 1.6 SSE 11 15 6 8 1019.5 1019.5 0.0
29/02:30am 13.9 12.4 10.5 80 1.8 SSE 9 11 5 6 1019.7 1019.7 0.0
29/02:00am 13.2 11.6 10.1 81 1.6 SE 9 11 5 6 1020.0 1020.0 0.0
29/01:30am 13.4 12.1 10.1 80 1.7 SE 7 11 4 6 1020.2 1020.2 0.0
29/01:00am 13.5 11.8 9.8 78 1.9 SE 9 11 5 6 1020.4 1020.4 0.0
29/12:30am 13.0 11.6 9.7 80 1.7 SE 7 9 4 5 1020.7 1020.7 0.0
29/12:00am 13.5 11.6 9.2 75 2.2 SE 9 11 5 6 1020.8 1020.8 0.0
 
Date/Time
EDT
Temp
°C
App
Temp
°C
Dew
Point
Rel
Hum
%
Delta-T
°C
Wind Press
QNH
hPa
Press
MSL
hPa
Rain
since 9 am
mm
Dir
 
Spd
km/h
Gust
km/h
Spd
kts
Gust
kts
28/11:30pm 13.8 11.3 9.7 76 2.1 SE 13 15 7 8 1021.0 1021.0 0.0
28/11:00pm 14.5 12.2 10.3 76 2.2 SE 13 17 7 9 1021.1 1021.1 0.0
28/10:30pm 14.8 12.5 10.4 75 2.3 SE 13 17 7 9 1021.2 1021.2 0.0
28/10:00pm 15.0 12.7 10.6 75 2.3 SE 13 20 7 11 1021.3 1021.3 0.0
28/09:30pm 14.9 12.7 10.9 77 2.1 SE 13 15 7 8 1021.1 1021.1 0.0
28/09:00pm 15.2 13.1 11.3 77 2.1 SE 13 15 7 8 1020.9 1020.9 0.0
28/08:30pm 16.0 12.7 10.9 72 2.7 SE 19 24 10 13 1020.9 1020.9 0.0
28/08:00pm 16.7 13.0 10.1 65 3.5 SE 20 28 11 15 1020.7 1020.7 0.0
28/07:30pm 17.1 12.6 9.9 62 3.8 SE 24 33 13 18 1020.6 1020.6 0.0
28/07:00pm 17.5 12.8 10.6 64 3.7 SE 26 39 14 21 1020.5 1020.5 0.0
28/06:30pm 17.9 13.1 10.2 60 4.1 SE 26 33 14 18 1020.1 1020.1 0.0
28/06:00pm 19.5 14.5 10.9 57 4.7 SE 28 35 15 19 1019.8 1019.8 0.0
28/05:30pm 20.0 15.2 10.4 54 5.2 ESE 26 33 14 18 1019.8 1019.8 0.0
28/05:00pm 20.6 15.4 10.2 51 5.6 ESE 28 39 15 21 1019.8 1019.8 0.0
28/04:30pm 21.0 16.0 11.0 52 5.5 ESE 28 41 15 22 1019.6 1019.6 0.0
28/04:00pm 20.6 14.7 10.5 52 5.5 SE 32 44 17 24 1019.8 1019.8 0.0
28/03:30pm 20.8 15.2 11.4 55 5.2 SE 32 46 17 25 1019.9 1019.9 0.0
28/03:00pm 19.2 13.5 11.1 59 4.4 SE 32 46 17 25 1019.9 1019.9 0.0
28/02:33pm 20.6 14.8 11.4 55 5.1 SE 33 52 18 28 1019.8 1019.8 0.0
28/02:30pm 21.0 14.9 11.9 56 5.1 SE 35 52 19 28 1019.7 1019.7 0.0
28/02:00pm 21.5 16.0 11.8 54 5.4 SE 32 46 17 25 1019.8 1019.8 0.0
28/01:30pm 20.0 13.8 11.3 57 4.8 ESE 35 46 19 25 1019.8 1019.8 0.0
28/01:00pm 20.6 14.9 11.8 57 4.9 SE 33 43 18 23 1019.7 1019.7 0.0
28/12:30pm 22.4 17.1 12.6 54 5.6 SE 32 41 17 22 1019.7 1019.7 0.0
28/12:00pm 20.7 14.8 11.3 55 5.2 ESE 33 44 18 24 1019.5 1019.5 0.0
28/11:30am 20.4 14.9 12.0 58 4.7 ESE 32 44 17 24 1019.6 1019.6 0.0
28/11:00am 19.7 15.0 12.0 61 4.3 SE 28 39 15 21 1019.6 1019.6 0.0
28/10:30am 19.2 15.0 12.4 64 3.8 SE 26 35 14 19 1019.7 1019.7 0.0

Other Formats:

Comma delimited format used in spreadsheet applications
http://www.bom.gov.au/fwo/IDV60801/IDV60801.94907.axf

JavaScript Object Notation format (JSON) in row-major order
http://www.bom.gov.au/fwo/IDV60801/IDV60801.94907.json